Time;durP1;ratioP1;P1;durP2;ratioP2;P2;SDS_P1;SDS_P2;PMS_P1;PMS_P2;Temp;Humidity;BMP_temperature;BMP_pressure;BME280_temperature;BME280_humidity;BME280_pressure;Samples;Min_cycle;Max_cycle;Signal;HPM_P1;HPM_P2
2024/02/19 00:01:00;;;;;;;;;;;;;;;18.16;42.60;102095.97;5034631;28;1131;-52
2024/02/19 00:03:27;;;;;;;;;;;;;;;17.31;44.09;102098.66;5018081;28;1175;-49
2024/02/19 00:05:54;;;;;;;;;;;;;;;16.75;45.01;102102.75;5034528;28;1181;-47
2024/02/19 00:08:21;;;;;;;;;;;;;;;17.85;43.24;102098.22;5027440;28;1902;-53
2024/02/19 00:10:46;;;;;;;;;;;;;;;17.24;44.39;102104.31;5031294;28;1067;-52
2024/02/19 00:13:12;;;;;;;;;;;;;;;16.73;44.90;102088.44;5024305;28;1114;-51
2024/02/19 00:15:38;;;;;;;;;;;;;;;16.54;45.04;102092.41;5024671;28;1198;-51
2024/02/19 00:18:04;;;;;;;;;;;;;;;18.05;42.85;102087.56;5027824;28;1075;-53
2024/02/19 00:20:29;;;;;;;;;;;;;;;16.98;44.67;102090.03;5034221;28;1142;-53
2024/02/19 00:22:55;;;;;;;;;;;;;;;17.94;43.00;102096.75;5037522;28;1194;-52
2024/02/19 00:25:20;;;;;;;;;;;;;;;17.90;42.70;102093.63;5027457;28;1099;-49
2024/02/19 00:27:46;;;;;;;;;;;;;;;17.01;44.67;102083.22;5037051;28;1965;-52
2024/02/19 00:30:12;;;;;;;;;;;;;;;16.73;44.87;102093.94;5037192;28;1126;-55
2024/02/19 00:32:37;;;;;;;;;;;;;;;17.41;44.18;102085.09;5027673;28;1024;-50
2024/02/19 00:35:04;;;;;;;;;;;;;;;18.41;41.89;102084.50;5033803;28;1072;-50
2024/02/19 00:37:30;;;;;;;;;;;;;;;17.13;44.54;102085.94;5036791;28;1146;-53
2024/02/19 00:39:57;;;;;;;;;;;;;;;16.75;44.97;102089.00;5036912;28;1416;-53
2024/02/19 00:42:24;;;;;;;;;;;;;;;16.51;44.93;102084.63;5027354;28;1050;-53
2024/02/19 00:44:50;;;;;;;;;;;;;;;16.41;45.20;102085.25;5034481;28;1246;-48
2024/02/19 00:47:15;;;;;;;;;;;;;;;18.12;42.78;102063.44;5036275;28;1910;-53
2024/02/19 00:49:41;;;;;;;;;;;;;;;16.89;44.84;102070.38;5033357;28;1054;-50
2024/02/19 00:52:06;;;;;;;;;;;;;;;16.55;45.32;102069.34;5027507;28;1218;-53
2024/02/19 00:54:32;;;;;;;;;;;;;;;18.05;42.72;102073.81;5037054;28;1210;-50
2024/02/19 00:56:57;;;;;;;;;;;;;;;16.92;44.76;102069.06;5037002;28;1135;-50
2024/02/19 00:59:25;;;;;;;;;;;;;;;16.98;45.18;102068.06;5036721;28;1167;-51
2024/02/19 01:01:50;;;;;;;;;;;;;;;17.60;43.36;102064.53;5035257;28;1059;-48
2024/02/19 01:04:16;;;;;;;;;;;;;;;16.80;45.13;102060.81;5036729;28;1080;-51
2024/02/19 01:06:42;;;;;;;;;;;;;;;17.11;44.85;102050.47;5036716;28;2042;-53
2024/02/19 01:09:09;;;;;;;;;;;;;;;17.51;43.54;102059.69;5036757;28;1092;-52
2024/02/19 01:11:35;;;;;;;;;;;;;;;16.74;45.09;102050.81;5036913;28;1076;-47
2024/02/19 01:14:00;;;;;;;;;;;;;;;16.93;44.82;102060.56;5032380;28;1147;-46
2024/02/19 01:16:26;;;;;;;;;;;;;;;17.92;42.62;102052.13;5027662;28;1048;-50
2024/02/19 01:18:51;;;;;;;;;;;;;;;16.87;44.67;102053.28;5036494;28;1235;-51
2024/02/19 01:21:19;;;;;;;;;;;;;;;18.60;41.33;102051.97;5036880;28;1106;-49
2024/02/19 01:23:45;;;;;;;;;;;;;;;17.73;43.20;102055.13;5036307;28;1034;-50
2024/02/19 01:26:10;;;;;;;;;;;;;;;17.01;44.73;102044.75;5035807;28;1068;-49
2024/02/19 01:28:36;;;;;;;;;;;;;;;17.25;44.24;102039.97;5035863;28;1910;-51
2024/02/19 01:31:02;;;;;;;;;;;;;;;18.59;41.36;102051.16;5025947;28;1155;-50
2024/02/19 01:33:28;;;;;;;;;;;;;;;17.26;44.25;102036.16;5020458;28;1060;-51
2024/02/19 01:35:53;;;;;;;;;;;;;;;16.84;44.85;102039.19;5025844;28;1035;-50
2024/02/19 01:38:19;;;;;;;;;;;;;;;16.68;44.66;102030.66;5026523;28;1116;-49
2024/02/19 01:40:44;;;;;;;;;;;;;;;16.47;44.94;102050.53;5036591;28;1166;-50
2024/02/19 01:43:11;;;;;;;;;;;;;;;17.72;43.36;102034.19;5032564;28;1106;-52
2024/02/19 01:45:37;;;;;;;;;;;;;;;16.77;44.94;102029.19;5027407;28;1027;-48
2024/02/19 01:48:02;;;;;;;;;;;;;;;16.50;45.29;102030.81;5031609;28;1906;-53
2024/02/19 01:50:31;;;;;;;;;;;;;;;16.66;45.15;102018.22;5048401;28;856;-50
2024/02/19 01:52:57;;;;;;;;;;;;;;;17.37;44.06;102020.69;5033308;28;1055;-50
2024/02/19 01:55:23;;;;;;;;;;;;;;;16.57;45.40;102012.28;5032567;28;1137;-49
2024/02/19 01:57:49;;;;;;;;;;;;;;;17.72;43.34;102017.69;5035251;28;1117;-53
2024/02/19 02:00:15;;;;;;;;;;;;;;;17.39;43.83;102022.09;5039507;28;1126;-49
2024/02/19 02:02:41;;;;;;;;;;;;;;;16.68;45.30;102019.66;5071649;28;1431;-50
2024/02/19 02:05:06;;;;;;;;;;;;;;;18.11;42.67;102023.25;5039005;28;1144;-48
2024/02/19 02:07:32;;;;;;;;;;;;;;;17.24;43.94;102027.34;5022497;28;1909;-52
2024/02/19 02:09:58;;;;;;;;;;;;;;;16.70;45.20;102035.88;5031127;28;1150;-49
2024/02/19 02:12:23;;;;;;;;;;;;;;;18.01;42.82;102031.38;5040180;28;1135;-51
2024/02/19 02:14:49;;;;;;;;;;;;;;;17.02;44.63;102028.03;5039857;28;885;-50
2024/02/19 02:17:14;;;;;;;;;;;;;;;18.09;42.56;102027.31;5039926;28;1140;-50
2024/02/19 02:19:41;;;;;;;;;;;;;;;18.19;41.94;102029.41;5039526;28;1040;-51
2024/02/19 02:22:07;;;;;;;;;;;;;;;17.28;43.98;102028.50;5026661;28;1139;-50
2024/02/19 02:24:33;;;;;;;;;;;;;;;16.87;44.57;102033.19;5039783;28;1144;-46
2024/02/19 02:26:58;;;;;;;;;;;;;;;16.81;44.55;102021.28;5039809;28;1910;-48
2024/02/19 02:29:24;;;;;;;;;;;;;;;18.16;42.15;102025.25;5039545;28;1086;-49
2024/02/19 02:31:49;;;;;;;;;;;;;;;17.08;44.49;102029.81;5035433;28;1020;-48
2024/02/19 02:34:15;;;;;;;;;;;;;;;16.69;44.81;102037.81;5030726;28;1152;-47
2024/02/19 02:36:40;;;;;;;;;;;;;;;16.46;44.97;102035.94;5026443;28;1178;-49
2024/02/19 02:39:06;;;;;;;;;;;;;;;16.82;44.75;102033.13;5028524;28;911;-49
2024/02/19 02:41:32;;;;;;;;;;;;;;;17.48;43.84;102028.03;5033112;28;1055;-49
2024/02/19 02:43:58;;;;;;;;;;;;;;;16.66;45.20;102027.31;5030485;28;1174;-51
2024/02/19 02:46:23;;;;;;;;;;;;;;;18.15;42.46;102037.34;5039726;28;1171;-46
2024/02/19 02:48:49;;;;;;;;;;;;;;;17.14;44.46;102033.47;5039359;28;1983;-50
2024/02/19 02:51:15;;;;;;;;;;;;;;;17.50;44.02;102039.63;5033047;28;1019;-48
2024/02/19 02:53:40;;;;;;;;;;;;;;;18.28;41.85;102036.13;5029217;28;1048;-49
2024/02/19 02:56:06;;;;;;;;;;;;;;;17.05;44.55;102032.19;5038775;28;1016;-50
2024/02/19 02:58:33;;;;;;;;;;;;;;;16.74;44.71;102034.31;5039383;28;1119;-53
2024/02/19 03:00:59;;;;;;;;;;;;;;;16.59;44.53;102038.44;5022934;28;1195;-52
2024/02/19 03:03:25;;;;;;;;;;;;;;;18.00;42.81;102035.19;5032920;28;1038;-50
2024/02/19 03:05:50;;;;;;;;;;;;;;;16.95;44.74;102043.84;5038919;28;1194;-47
2024/02/19 03:08:16;;;;;;;;;;;;;;;16.56;45.07;102032.59;5038624;28;1910;-53
2024/02/19 03:10:43;;;;;;;;;;;;;;;17.55;43.59;102041.63;5038356;28;1150;-51
2024/02/19 03:13:08;;;;;;;;;;;;;;;16.67;45.10;102039.94;5038563;28;1051;-52
2024/02/19 03:15:34;;;;;;;;;;;;;;;17.84;43.03;102030.50;5036980;28;1171;-53
2024/02/19 03:17:59;;;;;;;;;;;;;;;17.45;43.76;102031.28;5038951;28;1123;-53
2024/02/19 03:20:27;;;;;;;;;;;;;;;16.83;44.68;102026.53;5035434;28;1055;-50
2024/02/19 03:22:53;;;;;;;;;;;;;;;17.02;44.87;102030.78;5028335;28;1104;-48
2024/02/19 03:25:18;;;;;;;;;;;;;;;18.04;42.62;102022.59;5025812;28;1131;-50
2024/02/19 03:27:44;;;;;;;;;;;;;;;16.97;44.43;102030.69;5038354;28;1910;-48
2024/02/19 03:30:09;;;;;;;;;;;;;;;16.68;44.67;102029.81;5038405;28;1166;-49
2024/02/19 03:32:35;;;;;;;;;;;;;;;16.42;44.76;102034.75;5038477;28;1019;-49
2024/02/19 03:35:01;;;;;;;;;;;;;;;17.75;43.56;102022.69;5038095;28;1063;-45
2024/02/19 03:37:26;;;;;;;;;;;;;;;17.07;44.77;102022.63;5029160;28;1159;-49
2024/02/19 03:39:52;;;;;;;;;;;;;;;18.43;41.74;102022.56;5034104;28;1115;-48
2024/02/19 03:42:17;;;;;;;;;;;;;;;18.70;40.94;102019.03;5037919;28;1051;-47
2024/02/19 03:44:44;;;;;;;;;;;;;;;17.47;43.64;102020.03;5038371;28;1060;-51
2024/02/19 03:47:10;;;;;;;;;;;;;;;16.97;44.37;102021.59;5038281;28;1914;-50
2024/02/19 03:49:35;;;;;;;;;;;;;;;16.75;44.48;102006.59;5038427;28;1047;-49
2024/02/19 03:52:01;;;;;;;;;;;;;;;18.29;42.32;102015.78;5037838;28;895;-51
2024/02/19 03:54:27;;;;;;;;;;;;;;;17.06;44.83;102012.72;5024388;28;1198;-49
2024/02/19 03:56:52;;;;;;;;;;;;;;;16.75;44.96;102014.84;5038032;28;1039;-52
2024/02/19 03:59:18;;;;;;;;;;;;;;;17.18;44.54;102007.16;5022207;28;1147;-52
2024/02/19 04:01:43;;;;;;;;;;;;;;;17.86;42.95;102004.41;5018473;28;1206;-48
2024/02/19 04:04:09;;;;;;;;;;;;;;;16.95;44.61;102007.28;5020852;28;829;-50
2024/02/19 04:06:35;;;;;;;;;;;;;;;18.24;42.45;102012.94;5037647;28;1406;-54
2024/02/19 04:09:00;;;;;;;;;;;;;;;17.36;43.85;102008.00;5024343;28;1909;-46
2024/02/19 04:11:26;;;;;;;;;;;;;;;16.84;44.58;102007.03;5038013;28;1100;-47
2024/02/19 04:13:51;;;;;;;;;;;;;;;16.62;44.99;102015.16;5037553;28;1060;-47
2024/02/19 04:16:17;;;;;;;;;;;;;;;17.08;44.60;102017.97;5037766;28;892;-52
2024/02/19 04:18:42;;;;;;;;;;;;;;;17.79;43.07;102021.13;5034693;28;1130;-57
2024/02/19 04:21:08;;;;;;;;;;;;;;;16.94;44.84;102022.94;5021572;28;1226;-57
2024/02/19 04:23:34;;;;;;;;;;;;;;;16.55;45.12;102019.91;5037405;28;1075;-56
2024/02/19 04:25:59;;;;;;;;;;;;;;;16.49;44.92;102024.47;5037855;28;1146;-57
2024/02/19 04:28:25;;;;;;;;;;;;;;;18.30;42.16;102017.47;5036864;28;1906;-57
2024/02/19 04:30:50;;;;;;;;;;;;;;;17.03;44.66;102007.72;5029012;28;1158;-57
2024/02/19 04:33:16;;;;;;;;;;;;;;;16.67;45.04;102026.22;5032522;28;1063;-57
2024/02/19 04:35:42;;;;;;;;;;;;;;;17.43;44.03;102031.53;5036980;28;1067;-58
2024/02/19 04:38:07;;;;;;;;;;;;;;;17.18;44.40;102039.31;5035031;28;1159;-56
2024/02/19 04:40:33;;;;;;;;;;;;;;;16.72;44.91;102040.06;5026057;28;1000;-57
2024/02/19 04:42:58;;;;;;;;;;;;;;;17.63;43.44;102032.94;5019246;28;1457;-56
2024/02/19 04:45:24;;;;;;;;;;;;;;;17.71;43.03;102039.94;5028695;28;1083;-57
2024/02/19 04:47:49;;;;;;;;;;;;;;;16.95;44.70;102035.59;5018996;28;1902;-56
2024/02/19 04:50:15;;;;;;;;;;;;;;;17.52;43.71;102034.69;5028862;28;1088;-57
2024/02/19 04:52:41;;;;;;;;;;;;;;;17.35;43.73;102029.19;5028333;28;2468;-57
2024/02/19 04:55:07;;;;;;;;;;;;;;;16.73;44.85;102032.66;5033608;28;2104;-57
2024/02/19 04:57:33;;;;;;;;;;;;;;;16.55;44.69;102047.38;5032131;28;1998;-57
2024/02/19 04:59:58;;;;;;;;;;;;;;;18.29;41.75;102035.06;5029445;28;2228;-57
2024/02/19 05:02:24;;;;;;;;;;;;;;;17.16;43.90;102044.22;5019197;28;1793;-54
2024/02/19 05:04:50;;;;;;;;;;;;;;;16.71;44.31;102043.88;5035025;28;1737;-52
2024/02/19 05:07:16;;;;;;;;;;;;;;;17.21;43.74;102038.84;5033853;28;1878;-57
2024/02/19 05:09:41;;;;;;;;;;;;;;;17.97;42.11;102038.47;5036630;28;1098;-56
2024/02/19 05:12:08;;;;;;;;;;;;;;;16.84;44.56;102030.94;5036777;28;1222;-57
2024/02/19 05:14:34;;;;;;;;;;;;;;;17.34;43.66;102037.69;5036913;28;1070;-56
2024/02/19 05:17:00;;;;;;;;;;;;;;;17.42;43.17;102042.78;5036493;28;885;-56
2024/02/19 05:19:26;;;;;;;;;;;;;;;17.00;44.35;102032.09;5036908;28;1012;-56
2024/02/19 05:21:52;;;;;;;;;;;;;;;16.71;44.74;102040.31;5036070;28;1127;-56
2024/02/19 05:24:17;;;;;;;;;;;;;;;16.50;45.20;102050.03;5036553;28;1019;-57
2024/02/19 05:26:43;;;;;;;;;;;;;;;16.33;45.60;102044.47;5036658;28;1997;-57
2024/02/19 05:29:09;;;;;;;;;;;;;;;16.18;45.92;102044.94;5035406;28;1424;-53
2024/02/19 05:31:35;;;;;;;;;;;;;;;16.03;46.40;102046.28;5035427;28;1507;-56
2024/02/19 05:34:01;;;;;;;;;;;;;;;15.83;46.70;102040.28;5023403;28;2400;-57
2024/02/19 05:36:27;;;;;;;;;;;;;;;15.71;47.11;102049.31;5029774;28;1484;-57
2024/02/19 05:38:53;;;;;;;;;;;;;;;15.58;47.48;102044.03;5035391;28;1088;-57
2024/02/19 05:41:18;;;;;;;;;;;;;;;15.56;47.27;102046.19;5032986;28;1294;-56
2024/02/19 05:43:46;;;;;;;;;;;;;;;15.42;47.93;102055.69;5029854;28;958;-56
2024/02/19 05:46:13;;;;;;;;;;;;;;;15.31;47.92;102049.94;5025076;28;1321;-56
2024/02/19 05:48:38;;;;;;;;;;;;;;;15.24;48.21;102049.22;5028185;28;2025;-57
2024/02/19 05:51:04;;;;;;;;;;;;;;;16.73;44.69;102055.47;5035501;28;1102;-57
2024/02/19 05:53:30;;;;;;;;;;;;;;;17.20;43.33;102062.72;5035692;28;1292;-56
2024/02/19 05:55:55;;;;;;;;;;;;;;;16.27;45.56;102059.13;5035903;28;1011;-57
2024/02/19 05:58:21;;;;;;;;;;;;;;;15.92;46.50;102060.78;5035724;28;1044;-56
2024/02/19 06:00:47;;;;;;;;;;;;;;;15.68;46.83;102066.25;5036350;28;1099;-56
2024/02/19 06:03:13;;;;;;;;;;;;;;;15.48;47.57;102066.53;5034843;28;1126;-56
2024/02/19 06:05:38;;;;;;;;;;;;;;;15.26;47.93;102068.97;5027377;28;2642;-56
2024/02/19 06:08:04;;;;;;;;;;;;;;;16.49;44.96;102070.31;5036135;28;1905;-57
2024/02/19 06:10:29;;;;;;;;;;;;;;;17.50;42.80;102058.03;5035944;28;1214;-56
2024/02/19 06:12:55;;;;;;;;;;;;;;;16.43;45.04;102061.97;5036370;28;1039;-55
2024/02/19 06:15:23;;;;;;;;;;;;;;;16.01;46.21;102059.38;5035781;28;1101;-56
2024/02/19 06:17:49;;;;;;;;;;;;;;;15.71;46.95;102060.28;5033654;28;1339;-56
2024/02/19 06:20:15;;;;;;;;;;;;;;;15.53;47.37;102068.59;5033164;28;1291;-56
2024/02/19 06:22:41;;;;;;;;;;;;;;;15.36;47.54;102069.28;5032551;28;1285;-55
2024/02/19 06:25:07;;;;;;;;;;;;;;;15.94;46.24;102063.34;5029011;28;962;-53
2024/02/19 06:27:33;;;;;;;;;;;;;;;17.30;43.05;102070.31;5035304;28;1902;-55
2024/02/19 06:29:58;;;;;;;;;;;;;;;16.73;44.39;102058.22;5035969;28;1059;-57
2024/02/19 06:32:24;;;;;;;;;;;;;;;16.06;46.05;102062.25;5035885;28;1111;-53
2024/02/19 06:34:50;;;;;;;;;;;;;;;15.78;46.71;102064.81;5035809;28;2828;-55
2024/02/19 06:37:15;;;;;;;;;;;;;;;15.55;47.08;102069.19;5036000;28;1124;-56
2024/02/19 06:39:41;;;;;;;;;;;;;;;15.45;47.58;102066.19;5022390;28;1025;-57
2024/02/19 06:42:07;;;;;;;;;;;;;;;16.36;45.45;102055.78;5027561;28;1051;-59
2024/02/19 06:44:32;;;;;;;;;;;;;;;17.51;42.81;102059.69;5035914;28;1292;-57
2024/02/19 06:46:58;;;;;;;;;;;;;;;16.51;44.56;102062.66;5033972;28;1910;-56
2024/02/19 06:49:24;;;;;;;;;;;;;;;16.06;45.91;102056.75;5031987;28;1154;-53
2024/02/19 06:51:50;;;;;;;;;;;;;;;15.70;46.91;102058.59;5039407;28;1047;-54
2024/02/19 06:54:15;;;;;;;;;;;;;;;15.52;47.10;102056.78;5039254;28;1182;-53
2024/02/19 06:56:41;;;;;;;;;;;;;;;15.36;47.61;102058.31;5039263;28;1480;-53
2024/02/19 06:59:07;;;;;;;;;;;;;;;16.75;44.56;102069.78;5025968;28;1170;-54
2024/02/19 07:01:32;;;;;;;;;;;;;;;17.38;42.97;102061.69;5038647;28;1301;-51
2024/02/19 07:03:58;;;;;;;;;;;;;;;16.30;45.34;102061.38;5037734;28;2423;-56
2024/02/19 07:06:23;;;;;;;;;;;;;;;15.95;46.03;102057.59;5039223;28;1202;-54
2024/02/19 07:08:49;;;;;;;;;;;;;;;15.65;46.97;102069.44;5038555;28;1918;-55
2024/02/19 07:11:15;;;;;;;;;;;;;;;15.43;47.19;102071.06;5031109;28;1230;-53
2024/02/19 07:13:40;;;;;;;;;;;;;;;15.37;47.72;102075.56;5035148;28;1036;-49
2024/02/19 07:16:06;;;;;;;;;;;;;;;16.82;44.29;102075.16;5030574;28;1166;-51
2024/02/19 07:18:32;;;;;;;;;;;;;;;17.41;42.71;102066.66;5038857;28;1269;-51
2024/02/19 07:20:57;;;;;;;;;;;;;;;16.38;44.97;102072.84;5025966;28;1324;-49
2024/02/19 07:23:23;;;;;;;;;;;;;;;15.98;45.83;102070.84;5028958;28;1308;-56
2024/02/19 07:25:48;;;;;;;;;;;;;;;15.77;46.36;102083.19;5034227;28;894;-54
2024/02/19 07:28:14;;;;;;;;;;;;;;;15.52;47.24;102081.47;5029648;28;1969;-57
2024/02/19 07:30:40;;;;;;;;;;;;;;;15.38;47.42;102075.34;5033840;28;1070;-57
2024/02/19 07:33:05;;;;;;;;;;;;;;;16.91;43.80;102079.22;5030414;28;1138;-57
2024/02/19 07:35:31;;;;;;;;;;;;;;;17.35;42.62;102083.31;5037276;28;2664;-59
2024/02/19 07:37:56;;;;;;;;;;;;;;;16.37;44.72;102079.41;5025667;28;1060;-55
2024/02/19 07:40:22;;;;;;;;;;;;;;;15.91;45.93;102078.34;5038169;28;1233;-56
2024/02/19 07:42:48;;;;;;;;;;;;;;;15.70;46.44;102075.06;5038678;28;1040;-53
2024/02/19 07:45:14;;;;;;;;;;;;;;;15.46;47.16;102078.81;5034062;28;1230;-53
2024/02/19 07:47:39;;;;;;;;;;;;;;;15.45;47.20;102068.94;5028541;28;1906;-57
2024/02/19 07:50:05;;;;;;;;;;;;;;;17.04;43.72;102067.09;5026296;28;893;-55
2024/02/19 07:52:31;;;;;;;;;;;;;;;17.22;42.92;102073.47;5035506;28;1667;-54
2024/02/19 07:54:56;;;;;;;;;;;;;;;16.32;45.11;102065.56;5028808;28;1425;-52
2024/02/19 07:57:22;;;;;;;;;;;;;;;15.92;45.73;102069.03;5033034;28;909;-56
2024/02/19 07:59:48;;;;;;;;;;;;;;;15.70;46.42;102074.25;5036214;28;1341;-57
2024/02/19 08:02:13;;;;;;;;;;;;;;;15.49;47.00;102062.75;5032725;28;933;-48
2024/02/19 08:04:39;;;;;;;;;;;;;;;15.44;47.03;102065.34;5035998;28;2529;-58
2024/02/19 08:07:05;;;;;;;;;;;;;;;16.97;43.78;102057.31;5038194;28;1909;-57
2024/02/19 08:09:30;;;;;;;;;;;;;;;17.33;42.63;102049.75;5036406;28;1024;-56
2024/02/19 08:11:57;;;;;;;;;;;;;;;16.29;44.93;102054.25;5018053;28;1197;-56
2024/02/19 08:14:24;;;;;;;;;;;;;;;15.88;45.95;102052.22;5033015;28;1110;-51
2024/02/19 08:16:50;;;;;;;;;;;;;;;15.69;46.48;102062.41;5035217;28;1191;-58
2024/02/19 08:19:16;;;;;;;;;;;;;;;15.45;47.09;102050.56;5037760;28;1386;-59
2024/02/19 08:21:42;;;;;;;;;;;;;;;16.94;43.53;102047.66;5037906;28;1094;-56
2024/02/19 08:24:10;;;;;;;;;;;;;;;17.13;42.87;102047.47;5028745;28;1341;-57
2024/02/19 08:26:36;;;;;;;;;;;;;;;16.28;45.11;102044.34;5032100;28;1270;-57
2024/02/19 08:29:01;;;;;;;;;;;;;;;15.88;45.94;102048.66;5031058;28;1913;-58
2024/02/19 08:31:27;;;;;;;;;;;;;;;15.74;46.18;102042.53;5034306;28;1089;-56
2024/02/19 08:33:54;;;;;;;;;;;;;;;15.49;47.05;102029.84;5035680;28;2347;-56
2024/02/19 08:36:20;;;;;;;;;;;;;;;15.97;45.92;102030.75;5030516;28;1596;-56
2024/02/19 08:38:48;;;;;;;;;;;;;;;17.34;42.49;102033.00;5035437;28;1446;-59
2024/02/19 08:41:14;;;;;;;;;;;;;;;16.98;43.26;102018.59;5036198;28;1364;-62
2024/02/19 08:43:39;;;;;;;;;;;;;;;16.26;45.00;102022.63;5035043;28;1230;-56
2024/02/19 08:46:05;;;;;;;;;;;;;;;15.87;45.72;102025.03;5033580;28;1363;-52
2024/02/19 08:48:30;;;;;;;;;;;;;;;15.71;46.16;102016.41;5034744;28;1980;-58
2024/02/19 08:50:56;;;;;;;;;;;;;;;15.50;46.97;102026.03;5035472;28;1479;-52
2024/02/19 08:53:23;;;;;;;;;;;;;;;15.70;46.37;102016.66;5035575;28;1353;-50
2024/02/19 08:55:48;;;;;;;;;;;;;;;17.22;43.10;102013.00;5035331;28;1341;-54
2024/02/19 08:58:14;;;;;;;;;;;;;;;17.01;43.00;102015.38;5033928;28;1215;-54
2024/02/19 09:00:40;;;;;;;;;;;;;;;16.26;45.08;102017.13;5034144;28;1281;-54
2024/02/19 09:03:06;;;;;;;;;;;;;;;15.88;45.96;102019.31;5033489;28;1269;-54
2024/02/19 09:05:32;;;;;;;;;;;;;;;15.73;46.40;102018.91;5034914;28;1878;-55
2024/02/19 09:07:58;;;;;;;;;;;;;;;15.48;46.81;102021.88;5035243;28;1906;-55
2024/02/19 09:10:23;;;;;;;;;;;;;;;15.71;46.33;102021.91;5023991;28;1072;-55
2024/02/19 09:12:49;;;;;;;;;;;;;;;17.18;43.06;102018.16;5036036;28;1023;-54
2024/02/19 09:15:15;;;;;;;;;;;;;;;17.19;42.87;102019.00;5036825;28;1000;-54
2024/02/19 09:17:40;;;;;;;;;;;;;;;16.33;44.82;102015.09;5033564;28;1333;-50
2024/02/19 09:20:06;;;;;;;;;;;;;;;16.01;45.49;102020.97;5036347;28;1119;-47
2024/02/19 09:22:33;;;;;;;;;;;;;;;15.70;46.48;102014.72;5035744;28;1305;-46
2024/02/19 09:24:59;;;;;;;;;;;;;;;15.52;46.87;102012.91;5032088;28;1611;-49
2024/02/19 09:27:24;;;;;;;;;;;;;;;15.35;47.08;102014.69;5033234;28;1894;-50
2024/02/19 09:29:50;;;;;;;;;;;;;;;16.81;43.88;102018.53;5025330;28;919;-49
2024/02/19 09:32:15;;;;;;;;;;;;;;;17.24;42.67;102016.34;5036072;28;1007;-48
2024/02/19 09:34:41;;;;;;;;;;;;;;;16.26;44.94;102014.41;5028402;28;2388;-49
2024/02/19 09:37:07;;;;;;;;;;;;;;;15.90;45.80;102016.31;5031347;28;1039;-53
2024/02/19 09:39:32;;;;;;;;;;;;;;;15.66;46.22;102010.78;5036084;28;1039;-50
2024/02/19 09:41:58;;;;;;;;;;;;;;;15.48;46.90;102016.38;5035897;28;1067;-48
2024/02/19 09:44:24;;;;;;;;;;;;;;;16.50;44.49;102000.63;5036505;28;1137;-47
2024/02/19 09:46:51;;;;;;;;;;;;;;;17.61;42.03;102002.09;5036156;28;1107;-49
2024/02/19 09:49:16;;;;;;;;;;;;;;;16.55;44.32;102000.69;5028445;28;1984;-47
2024/02/19 09:51:44;;;;;;;;;;;;;;;16.09;45.29;101992.34;5055075;28;1036;-47
2024/02/19 09:54:09;;;;;;;;;;;;;;;15.79;46.12;101987.81;5034594;28;1091;-50
2024/02/19 09:56:35;;;;;;;;;;;;;;;15.65;46.49;101986.34;5061651;28;1127;-48
2024/02/19 09:59:00;;;;;;;;;;;;;;;15.44;46.79;101987.78;5031738;28;1532;-48
2024/02/19 10:01:26;;;;;;;;;;;;;;;15.57;46.64;101980.16;5024266;28;1725;-47
2024/02/19 10:03:52;;;;;;;;;;;;;;;17.10;43.03;101978.16;5033169;28;1348;-48
2024/02/19 10:06:17;;;;;;;;;;;;;;;17.23;42.58;101976.19;5035580;28;1127;-51
2024/02/19 10:08:43;;;;;;;;;;;;;;;16.23;44.93;101970.97;5023608;28;1910;-48
2024/02/19 10:11:10;;;;;;;;;;;;;;;15.85;45.81;101964.94;5035218;28;1046;-50
2024/02/19 10:13:39;;;;;;;;;;;;;;;15.65;46.29;101965.25;5036072;28;1150;-50
2024/02/19 10:16:11;;;;;;;;;;;;;;;15.49;46.96;101963.25;5036010;28;1036;-50
2024/02/19 10:18:37;;;;;;;;;;;;;;;15.29;47.37;101963.53;5035071;28;1142;-49
2024/02/19 10:21:03;;;;;;;;;;;;;;;16.23;45.02;101968.22;5039140;28;1011;-47
2024/02/19 10:23:29;;;;;;;;;;;;;;;17.40;42.46;101965.19;5039862;28;985;-49
2024/02/19 10:25:55;;;;;;;;;;;;;;;16.77;43.52;101951.44;5039423;28;1043;-52
2024/02/19 10:28:22;;;;;;;;;;;;;;;16.12;45.46;101949.84;5039423;28;1969;-49
2024/02/19 10:30:53;;;;;;;;;;;;;;;15.73;45.98;101936.66;5039923;28;876;-51
2024/02/19 10:33:19;;;;;;;;;;;;;;;15.58;46.62;101945.34;5027542;28;1043;-53
2024/02/19 10:35:48;;;;;;;;;;;;;;;15.44;46.96;101939.25;5039454;28;1038;-49
2024/02/19 10:38:16;;;;;;;;;;;;;;;16.16;45.33;101929.06;5040221;28;1059;-50
2024/02/19 10:40:41;;;;;;;;;;;;;;;17.39;42.45;101936.88;5039535;28;1055;-54
2024/02/19 10:43:07;;;;;;;;;;;;;;;16.59;43.81;101928.59;5038213;28;1349;-46
2024/02/19 10:45:34;;;;;;;;;;;;;;;16.02;45.37;101937.59;5038269;28;1076;-48
2024/02/19 10:47:59;;;;;;;;;;;;;;;15.65;46.42;101935.09;5039640;28;1975;-49
2024/02/19 10:50:29;;;;;;;;;;;;;;;15.45;46.71;101921.75;5039875;28;1147;-47
2024/02/19 10:52:55;;;;;;;;;;;;;;;15.31;47.07;101929.34;5039592;28;1079;-46
2024/02/19 10:55:22;;;;;;;;;;;;;;;16.45;44.37;101923.63;5039136;28;1217;-53
2024/02/19 10:57:48;;;;;;;;;;;;;;;17.52;42.02;101921.13;5039194;28;1131;-51
2024/02/19 11:00:15;;;;;;;;;;;;;;;16.49;44.25;101916.56;5039430;28;1031;-48
2024/02/19 11:02:40;;;;;;;;;;;;;;;16.03;45.40;101920.06;5026644;28;1391;-49
2024/02/19 11:05:07;;;;;;;;;;;;;;;15.73;45.98;101915.53;5039258;28;1358;-47
2024/02/19 11:07:33;;;;;;;;;;;;;;;15.49;46.75;101911.97;5038568;28;1971;-48
2024/02/19 11:10:00;;;;;;;;;;;;;;;15.40;46.92;101910.66;5039021;28;1345;-48
2024/02/19 11:12:26;;;;;;;;;;;;;;;16.83;43.52;101912.00;5038974;28;1191;-50
2024/02/19 11:14:52;;;;;;;;;;;;;;;17.29;42.47;101906.44;5039109;28;1023;-47
2024/02/19 11:17:18;;;;;;;;;;;;;;;16.32;44.60;101900.88;5038572;28;1121;-49
2024/02/19 11:19:44;;;;;;;;;;;;;;;16.02;45.21;101907.41;5038868;28;845;-53
2024/02/19 11:22:11;;;;;;;;;;;;;;;15.71;46.20;101894.91;5039182;28;1130;-49
2024/02/19 11:24:37;;;;;;;;;;;;;;;15.46;46.63;101892.41;5039180;28;1135;-47
2024/02/19 11:27:04;;;;;;;;;;;;;;;15.64;46.18;101889.56;5038197;28;1902;-52
2024/02/19 11:29:30;;;;;;;;;;;;;;;17.17;42.77;101898.31;5038675;28;1102;-47
2024/02/19 11:32:02;;;;;;;;;;;;;;;17.12;42.56;101886.41;5033041;28;1048;-47
2024/02/19 11:34:28;;;;;;;;;;;;;;;16.23;44.90;101885.91;5037822;28;1242;-49
2024/02/19 11:37:03;;;;;;;;;;;;;;;15.85;45.73;101885.41;5038304;28;1115;-53
2024/02/19 11:39:31;;;;;;;;;;;;;;;15.63;46.22;101876.94;5024453;28;1058;-49
2024/02/19 11:42:00;;;;;;;;;;;;;;;15.44;46.75;101880.88;5035785;28;1113;-48
2024/02/19 11:44:28;;;;;;;;;;;;;;;15.98;45.32;101876.06;5035370;28;1032;-49
2024/02/19 11:46:54;;;;;;;;;;;;;;;17.36;42.25;101878.78;5048486;28;1027;-59
2024/02/19 11:49:19;;;;;;;;;;;;;;;16.63;43.52;101868.50;5030360;28;1914;-62
2024/02/19 11:51:45;;;;;;;;;;;;;;;16.06;45.12;101867.44;5038065;28;1091;-60
2024/02/19 11:54:11;;;;;;;;;;;;;;;15.76;45.73;101864.84;5036976;28;1222;-60
2024/02/19 11:56:43;;;;;;;;;;;;;;;15.64;46.25;101862.16;5038067;28;1072;-60
2024/02/19 11:59:08;;;;;;;;;;;;;;;15.41;46.47;101865.72;5037056;28;1112;-59
2024/02/19 12:01:34;;;;;;;;;;;;;;;16.77;43.58;101858.88;5037984;28;1098;-60
2024/02/19 12:04:01;;;;;;;;;;;;;;;17.60;41.43;101861.00;5038042;28;1150;-62
2024/02/19 12:06:27;;;;;;;;;;;;;;;16.45;44.27;101864.06;5035638;28;1477;-60
2024/02/19 12:08:52;;;;;;;;;;;;;;;15.95;45.18;101862.84;5037869;28;1975;-61
2024/02/19 12:11:18;;;;;;;;;;;;;;;15.74;45.90;101856.88;5038550;28;1060;-61
2024/02/19 12:13:43;;;;;;;;;;;;;;;15.57;46.42;101855.94;5033737;28;1327;-48
2024/02/19 12:16:09;;;;;;;;;;;;;;;15.50;46.54;101852.50;5037400;28;1372;-50
2024/02/19 12:18:35;;;;;;;;;;;;;;;17.01;43.09;101856.00;5035572;28;1257;-51
2024/02/19 12:21:03;;;;;;;;;;;;;;;17.54;41.54;101858.44;5036247;28;1297;-49
2024/02/19 12:23:29;;;;;;;;;;;;;;;16.49;44.15;101853.44;5037482;28;1332;-52
2024/02/19 12:25:54;;;;;;;;;;;;;;;16.03;45.22;101843.25;5037017;28;1344;-53
2024/02/19 12:28:20;;;;;;;;;;;;;;;15.74;45.69;101851.38;5037334;28;1905;-50
2024/02/19 12:30:45;;;;;;;;;;;;;;;15.64;45.91;101847.59;5036483;28;1368;-53
2024/02/19 12:33:11;;;;;;;;;;;;;;;15.45;46.52;101858.69;5037811;28;1039;-49
2024/02/19 12:35:37;;;;;;;;;;;;;;;16.80;43.29;101856.72;5033044;28;1296;-47
2024/02/19 12:38:03;;;;;;;;;;;;;;;17.48;41.68;101857.53;5036385;28;1091;-48
2024/02/19 12:40:29;;;;;;;;;;;;;;;16.40;44.13;101851.06;5037189;28;1020;-52